Time;durP1;ratioP1;P1;durP2;ratioP2;P2;SDS_P1;SDS_P2;PMS_P1;PMS_P2;Temp;Humidity;BMP_temperature;BMP_pressure;BME280_temperature;BME280_humidity;BME280_pressure;Samples;Min_cycle;Max_cycle;Signal;HPM_P1;HPM_P2
2022/09/02 00:00:56;;;;;;;3.17;1.42;;;15.50;99.90;;;;;;4791551;29;20042;-77
2022/09/02 00:03:22;;;;;;;2.25;1.40;;;15.40;99.90;;;;;;4791736;29;20054;-78
2022/09/02 00:05:47;;;;;;;3.13;1.48;;;15.40;99.90;;;;;;4791652;29;20365;-78
2022/09/02 00:08:13;;;;;;;2.42;1.40;;;15.40;99.90;;;;;;4791685;29;20576;-78
2022/09/02 00:10:42;;;;;;;3.85;1.45;;;15.40;99.90;;;;;;4791423;29;20047;-78
2022/09/02 00:13:10;;;;;;;4.40;1.50;;;15.30;99.90;;;;;;4791514;29;20057;-78
2022/09/02 00:15:37;;;;;;;2.13;1.10;;;15.30;99.90;;;;;;4791024;29;20047;-78
2022/09/02 00:18:03;;;;;;;2.70;1.38;;;15.30;99.90;;;;;;4807192;29;20094;-78
2022/09/02 00:20:29;;;;;;;2.33;1.50;;;15.30;99.90;;;;;;4791428;29;20532;-78
2022/09/02 00:22:55;;;;;;;3.35;1.40;;;15.20;99.90;;;;;;4791144;29;20099;-78
2022/09/02 00:25:22;;;;;;;4.70;1.35;;;15.30;99.90;;;;;;4791160;29;20116;-78
2022/09/02 00:27:48;;;;;;;5.70;1.70;;;15.20;99.90;;;;;;4791101;29;20415;-79
2022/09/02 00:30:14;;;;;;;2.47;1.70;;;15.20;99.90;;;;;;4807362;29;20055;-77
2022/09/02 00:32:41;;;;;;;3.90;2.58;;;15.20;99.90;;;;;;4807276;29;20042;-77
2022/09/02 00:35:08;;;;;;;4.25;1.80;;;15.20;99.90;;;;;;4790743;29;20407;-79
2022/09/02 00:37:34;;;;;;;3.85;1.63;;;15.10;99.90;;;;;;4807146;29;20108;-78
2022/09/02 00:40:00;;;;;;;4.20;1.70;;;15.10;99.90;;;;;;4790886;29;20050;-77
2022/09/02 00:42:26;;;;;;;4.25;1.80;;;15.10;99.90;;;;;;4790840;29;20072;-78
2022/09/02 00:44:53;;;;;;;2.40;1.35;;;15.10;99.90;;;;;;4790700;29;20094;-79
2022/09/02 00:47:18;;;;;;;5.88;1.83;;;15.00;99.90;;;;;;4790989;29;20129;-78
2022/09/02 00:49:49;;;;;;;3.45;1.60;;;15.10;99.90;;;;;;4790686;29;20130;-78
2022/09/02 00:52:19;;;;;;;2.80;1.70;;;15.10;99.90;;;;;;4807101;29;20095;-78
2022/09/02 00:54:51;;;;;;;2.80;1.45;;;15.00;99.90;;;;;;4790684;29;20051;-78
2022/09/02 00:57:21;;;;;;;4.90;1.60;;;15.00;99.90;;;;;;4790674;29;20158;-77
2022/09/02 01:00:04;;;;;;;6.43;1.33;;;15.00;99.90;;;;;;4790749;29;20472;-78
2022/09/02 01:02:30;;;;;;;4.18;1.52;;;15.00;99.90;;;;;;4790560;29;20066;-77
2022/09/02 01:04:58;;;;;;;2.30;1.52;;;15.00;99.90;;;;;;4790608;29;20055;-78
2022/09/02 01:07:32;;;;;;;2.35;1.40;;;15.00;99.90;;;;;;4791204;29;20129;-78
2022/09/02 01:10:00;;;;;;;3.45;1.60;;;14.90;99.90;;;;;;4806705;29;20123;-78
2022/09/02 01:12:28;;;;;;;4.07;1.60;;;14.90;99.90;;;;;;4806695;29;20059;-78
2022/09/02 01:14:53;;;;;;;7.50;1.92;;;14.90;99.90;;;;;;4790439;29;20046;-78
2022/09/02 01:17:19;;;;;;;2.83;1.55;;;14.90;99.90;;;;;;4790058;29;20136;-78
2022/09/02 01:19:50;;;;;;;2.72;1.45;;;14.80;99.90;;;;;;4790594;29;20062;-78
2022/09/02 01:22:20;;;;;;;3.35;1.70;;;14.90;99.90;;;;;;4791061;29;20134;-79
2022/09/02 01:24:46;;;;;;;4.65;1.55;;;14.80;99.90;;;;;;4790226;29;20412;-78
2022/09/02 01:27:18;;;;;;;2.28;1.50;;;14.90;99.90;;;;;;4789543;29;20507;-78
2022/09/02 01:29:45;;;;;;;3.87;1.90;;;14.80;99.90;;;;;;4806503;29;20039;-78
2022/09/02 01:32:11;;;;;;;4.97;1.70;;;14.80;99.90;;;;;;4790407;29;20058;-78
2022/09/02 01:34:37;;;;;;;3.85;2.30;;;14.70;99.90;;;;;;4806172;29;20510;-78
2022/09/02 01:37:03;;;;;;;3.08;1.65;;;14.80;99.90;;;;;;4790095;29;20050;-78
2022/09/02 01:39:29;;;;;;;2.78;2.00;;;14.70;99.90;;;;;;4806433;29;20126;-78
2022/09/02 01:41:54;;;;;;;2.35;1.52;;;14.70;99.90;;;;;;4781683;29;20126;-78
2022/09/02 01:44:20;;;;;;;4.05;1.75;;;14.70;99.90;;;;;;4788258;30;20138;-79
2022/09/02 01:46:46;;;;;;;4.03;1.52;;;14.70;99.90;;;;;;4772157;30;20059;-78
2022/09/02 01:49:12;;;;;;;2.90;1.70;;;14.60;99.90;;;;;;4772195;30;20051;-79
2022/09/02 01:51:40;;;;;;;4.90;1.60;;;14.60;99.90;;;;;;4772783;30;20079;-78
2022/09/02 01:54:05;;;;;;;3.33;1.80;;;14.70;99.90;;;;;;4772044;30;20458;-78
2022/09/02 01:56:31;;;;;;;4.50;1.45;;;14.70;99.90;;;;;;4771949;30;20442;-79
2022/09/02 01:58:57;;;;;;;1.98;1.30;;;14.60;99.90;;;;;;4772367;30;20053;-78
2022/09/02 02:01:23;;;;;;;5.05;1.98;;;14.60;99.90;;;;;;4771727;30;20454;-77
2022/09/02 02:03:48;;;;;;;3.30;1.95;;;14.60;99.90;;;;;;4771921;29;20085;-78
2022/09/02 02:06:15;;;;;;;3.15;1.80;;;14.60;99.90;;;;;;4772175;30;20055;-77
2022/09/02 02:08:42;;;;;;;3.45;1.77;;;14.60;99.90;;;;;;4788228;29;20047;-78
2022/09/02 02:11:08;;;;;;;5.78;2.08;;;14.60;99.90;;;;;;4788135;30;20138;-77
2022/09/02 02:13:34;;;;;;;2.60;1.65;;;14.60;99.90;;;;;;4771896;30;20420;-78
2022/09/02 02:16:00;;;;;;;4.00;1.90;;;14.60;99.90;;;;;;4772123;29;20500;-78
2022/09/02 02:18:25;;;;;;;4.47;1.70;;;14.60;99.90;;;;;;4771726;30;20095;-77
2022/09/02 02:20:51;;;;;;;2.60;1.67;;;14.60;99.90;;;;;;4772105;30;20105;-78
2022/09/02 02:23:17;;;;;;;3.78;2.00;;;14.50;99.90;;;;;;4788087;30;20381;-78
2022/09/02 02:25:43;;;;;;;3.30;1.73;;;14.50;99.90;;;;;;4771855;30;20101;-80
2022/09/02 02:28:09;;;;;;;4.03;1.60;;;14.40;99.90;;;;;;4771933;30;20062;-78
2022/09/02 02:30:35;;;;;;;2.63;1.55;;;14.50;99.90;;;;;;4787985;30;20118;-78
2022/09/02 02:33:00;;;;;;;2.65;1.65;;;14.50;99.90;;;;;;4787680;29;20130;-78
2022/09/02 02:35:27;;;;;;;4.25;1.63;;;14.50;99.90;;;;;;4786780;30;20055;-77
2022/09/02 02:37:52;;;;;;;3.05;1.70;;;14.50;99.90;;;;;;4787901;29;20058;-78
2022/09/02 02:40:21;;;;;;;3.55;2.08;;;14.40;99.90;;;;;;4791093;29;20043;-79
2022/09/02 02:42:47;;;;;;;2.50;1.80;;;14.40;99.90;;;;;;4775273;30;20555;-77
2022/09/02 02:45:13;;;;;;;2.97;1.80;;;14.40;99.90;;;;;;4790835;29;20496;-78
2022/09/02 02:47:41;;;;;;;9.25;1.85;;;14.40;99.90;;;;;;4775057;30;20058;-78
2022/09/02 02:50:09;;;;;;;2.92;1.80;;;14.40;99.90;;;;;;4775052;30;20185;-79
2022/09/02 02:52:36;;;;;;;3.67;1.80;;;14.40;99.90;;;;;;4774801;30;20058;-79
2022/09/02 02:55:02;;;;;;;3.58;1.85;;;14.30;99.90;;;;;;4790889;29;20553;-78
2022/09/02 02:57:28;;;;;;;4.47;1.77;;;14.30;99.90;;;;;;4774633;30;20055;-78
2022/09/02 02:59:53;;;;;;;3.00;1.83;;;14.30;99.90;;;;;;4791140;29;20061;-78
2022/09/02 03:02:19;;;;;;;2.75;1.70;;;14.30;99.90;;;;;;4791053;29;20051;-77
2022/09/02 03:04:45;;;;;;;5.03;1.85;;;14.30;99.90;;;;;;4789472;30;20047;-78
2022/09/02 03:07:11;;;;;;;4.20;1.88;;;14.30;99.90;;;;;;4774547;30;20051;-78
2022/09/02 03:09:36;;;;;;;2.65;1.67;;;14.30;99.90;;;;;;4774792;30;20054;-77
2022/09/02 03:12:02;;;;;;;2.80;1.50;;;14.30;99.90;;;;;;4774816;30;20485;-78
2022/09/02 03:14:28;;;;;;;2.90;1.90;;;14.30;99.90;;;;;;4774683;30;20066;-79
2022/09/02 03:16:53;;;;;;;5.15;2.20;;;14.20;99.90;;;;;;4771044;30;20059;-78
2022/09/02 03:19:19;;;;;;;2.92;1.90;;;14.20;99.90;;;;;;4771276;30;20094;-78
2022/09/02 03:21:45;;;;;;;3.38;1.83;;;14.20;99.90;;;;;;4771303;30;20079;-77
2022/09/02 03:24:11;;;;;;;3.22;1.60;;;14.20;99.90;;;;;;4771307;30;20134;-78
2022/09/02 03:26:39;;;;;;;3.55;2.00;;;14.10;99.90;;;;;;4786168;29;20101;-78
2022/09/02 03:29:04;;;;;;;3.40;1.55;;;14.10;99.90;;;;;;4771272;30;20048;-77
2022/09/02 03:31:30;;;;;;;3.13;1.95;;;14.10;99.90;;;;;;4772497;30;20131;-77
2022/09/02 03:33:56;;;;;;;2.85;1.80;;;14.10;99.90;;;;;;4786199;30;20094;-77
2022/09/02 03:36:26;;;;;;;2.80;1.83;;;14.20;99.90;;;;;;4771198;30;20055;-78
2022/09/02 03:38:53;;;;;;;3.78;1.92;;;14.10;99.90;;;;;;4771149;30;20052;-77
2022/09/02 03:41:18;;;;;;;5.28;1.83;;;14.10;99.90;;;;;;4771290;30;20047;-77
2022/09/02 03:43:44;;;;;;;3.25;1.70;;;14.10;99.90;;;;;;4771722;30;20055;-77
2022/09/02 03:46:10;;;;;;;3.65;2.60;;;14.10;99.90;;;;;;4770855;30;20402;-78
2022/09/02 03:48:36;;;;;;;4.57;2.05;;;14.10;99.90;;;;;;4770808;30;20083;-78
2022/09/02 03:51:01;;;;;;;3.53;1.90;;;14.00;99.90;;;;;;4771403;30;20044;-78
2022/09/02 03:53:27;;;;;;;4.60;2.03;;;14.00;99.90;;;;;;4771904;30;20452;-77
2022/09/02 03:55:53;;;;;;;4.25;2.08;;;14.00;99.90;;;;;;4771933;30;20106;-77
2022/09/02 03:58:21;;;;;;;3.33;1.88;;;13.90;99.90;;;;;;4770633;30;20060;-79
2022/09/02 04:00:52;;;;;;;3.35;1.90;;;13.90;99.90;;;;;;4770564;30;20405;-77
2022/09/02 04:03:18;;;;;;;3.03;1.90;;;13.90;99.90;;;;;;4770580;30;20107;-77
2022/09/02 04:05:49;;;;;;;3.85;1.80;;;13.90;99.90;;;;;;4770859;30;20079;-77
2022/09/02 04:08:16;;;;;;;2.78;1.88;;;13.90;99.90;;;;;;4771900;30;20058;-78
2022/09/02 04:10:42;;;;;;;3.88;1.90;;;13.90;99.90;;;;;;4771768;30;20054;-77
2022/09/02 04:13:07;;;;;;;3.67;1.80;;;13.90;99.90;;;;;;4770626;30;20139;-77
2022/09/02 04:15:33;;;;;;;3.60;2.10;;;13.90;99.90;;;;;;4770741;30;20130;-77
2022/09/02 04:17:59;;;;;;;3.55;2.00;;;13.80;99.90;;;;;;4770184;30;20469;-78
2022/09/02 04:20:24;;;;;;;2.47;1.83;;;13.80;99.90;;;;;;4770665;30;20050;-78
2022/09/02 04:22:50;;;;;;;3.15;2.00;;;13.80;99.90;;;;;;4770632;30;20056;-77
2022/09/02 04:25:16;;;;;;;4.07;2.35;;;13.80;99.90;;;;;;4770297;30;20113;-78
2022/09/02 04:27:42;;;;;;;5.30;1.92;;;13.80;99.90;;;;;;4770185;30;20055;-77
2022/09/02 04:30:08;;;;;;;6.00;2.13;;;13.80;99.90;;;;;;4770640;30;20055;-77
2022/09/02 04:32:35;;;;;;;3.58;2.00;;;13.70;99.90;;;;;;4771196;30;20219;-78
2022/09/02 04:35:01;;;;;;;3.22;1.70;;;13.80;99.90;;;;;;4770225;30;20043;-77
2022/09/02 04:37:26;;;;;;;3.83;1.70;;;13.80;99.90;;;;;;4784700;30;20408;-77
2022/09/02 04:39:52;;;;;;;6.15;2.20;;;13.80;99.90;;;;;;4770220;30;20505;-77
2022/09/02 04:42:18;;;;;;;5.30;2.33;;;13.80;99.90;;;;;;4783946;30;20090;-78
2022/09/02 04:44:45;;;;;;;3.08;1.98;;;13.70;99.90;;;;;;4769923;30;20362;-77
2022/09/02 04:47:11;;;;;;;3.42;2.17;;;13.70;99.90;;;;;;4769846;30;20056;-77
2022/09/02 04:49:37;;;;;;;4.22;2.03;;;13.70;99.90;;;;;;4771120;30;20052;-77
2022/09/02 04:52:03;;;;;;;4.20;1.90;;;13.70;99.90;;;;;;4769836;30;20066;-77
2022/09/02 04:54:29;;;;;;;5.30;2.38;;;13.70;99.90;;;;;;4770788;30;20074;-77
2022/09/02 04:56:55;;;;;;;3.63;2.08;;;13.70;99.90;;;;;;4769491;30;20054;-77
2022/09/02 04:59:21;;;;;;;4.22;2.33;;;13.70;99.90;;;;;;4769536;30;20051;-78
2022/09/02 05:01:48;;;;;;;4.18;2.28;;;13.60;99.90;;;;;;4770250;29;20051;-77
2022/09/02 05:04:14;;;;;;;5.10;2.28;;;13.70;99.90;;;;;;4770423;30;20505;-77
2022/09/02 05:06:40;;;;;;;3.90;2.30;;;13.70;99.90;;;;;;4770959;30;20043;-78
2022/09/02 05:09:07;;;;;;;4.25;1.98;;;13.70;99.90;;;;;;4769407;30;20056;-77
2022/09/02 05:11:34;;;;;;;2.85;2.10;;;13.70;99.90;;;;;;4769612;30;20071;-77
2022/09/02 05:14:03;;;;;;;4.55;2.50;;;13.70;99.90;;;;;;4769630;30;20043;-80
2022/09/02 05:16:36;;;;;;;6.45;2.38;;;13.70;99.90;;;;;;4771567;30;20109;-77
2022/09/02 05:19:03;;;;;;;;;;;13.60;99.90;;;;;;4773137;30;20074;-78
2022/09/02 05:21:30;;;;;;;4.57;2.58;;;13.70;99.90;;;;;;4788539;29;19926;-78
2022/09/02 05:23:57;;;;;;;4.30;2.10;;;13.60;99.90;;;;;;4772090;30;20091;-78
2022/09/02 05:26:23;;;;;;;6.15;2.17;;;13.70;99.90;;;;;;4788184;30;20401;-78
2022/09/02 05:28:49;;;;;;;3.53;2.40;;;13.70;99.90;;;;;;4788287;30;20111;-78
2022/09/02 05:31:18;;;;;;;3.25;2.22;;;13.70;99.90;;;;;;4772304;30;20428;-78
2022/09/02 05:33:44;;;;;;;3.13;1.95;;;13.70;99.90;;;;;;4772109;30;20055;-78
2022/09/02 05:36:15;;;;;;;7.93;2.55;;;13.80;99.90;;;;;;4771924;30;20044;-77
2022/09/02 05:38:42;;;;;;;4.38;2.33;;;13.80;99.90;;;;;;4772309;30;20157;-77
2022/09/02 05:41:13;;;;;;;3.85;2.28;;;13.80;99.90;;;;;;4772144;30;20051;-77
2022/09/02 05:43:40;;;;;;;4.18;1.90;;;13.80;99.90;;;;;;4772221;30;20059;-77
2022/09/02 05:46:08;;;;;;;3.45;2.22;;;13.90;99.90;;;;;;4771988;30;20047;-79
2022/09/02 05:51:20;;;;;;;3.33;1.98;;;14.00;99.90;;;;;;4788311;30;20066;-77
2022/09/02 05:53:46;;;;;;;5.10;2.50;;;14.10;99.90;;;;;;4771923;30;20077;-78
2022/09/02 05:56:12;;;;;;;3.70;2.35;;;14.10;99.90;;;;;;4788184;30;20043;-77
2022/09/02 06:12:52;;;;;;;3.60;2.17;;;14.90;99.90;;;;;;5320735;24;20070;-78
2022/09/02 06:15:18;;;;;;;5.03;1.77;;;15.00;99.90;;;;;;4793082;29;20051;-78
2022/09/02 06:17:43;;;;;;;4.00;1.98;;;15.20;99.90;;;;;;4792830;29;20516;-79
2022/09/02 06:20:09;;;;;;;4.85;2.00;;;15.30;99.90;;;;;;4793154;29;20047;-80
2022/09/02 06:22:35;;;;;;;3.47;1.98;;;15.40;99.90;;;;;;4792834;29;20202;-79
2022/09/02 06:25:00;;;;;;;3.00;1.67;;;15.50;99.90;;;;;;4809164;29;20047;-78
2022/09/02 06:27:26;;;;;;;5.05;1.95;;;15.60;99.90;;;;;;4793087;29;20049;-78
2022/09/02 06:29:52;;;;;;;2.70;1.73;;;15.80;99.90;;;;;;4792995;29;20066;-79
2022/09/02 06:32:17;;;;;;;4.63;1.90;;;15.90;99.90;;;;;;4792930;29;20517;-77
2022/09/02 06:34:43;;;;;;;2.95;1.80;;;16.00;99.90;;;;;;4792687;29;20088;-80
2022/09/02 06:37:09;;;;;;;3.25;1.80;;;16.10;99.90;;;;;;4792551;29;20484;-78
2022/09/02 06:39:36;;;;;;;2.83;1.70;;;16.20;99.90;;;;;;4792619;29;20057;-82
2022/09/02 06:42:02;;;;;;;3.80;1.67;;;16.40;99.90;;;;;;4792581;29;20078;-80
2022/09/02 06:44:28;;;;;;;4.50;1.90;;;16.40;99.90;;;;;;4809056;29;20082;-80
2022/09/02 06:46:56;;;;;;;4.32;2.00;;;16.50;99.90;;;;;;4792443;29;20507;-83
2022/09/02 06:49:24;;;;;;;4.53;1.98;;;16.60;99.90;;;;;;4809217;29;20039;-82
2022/09/02 06:51:52;;;;;;;2.92;1.80;;;16.70;99.90;;;;;;4808707;29;20467;-81
2022/09/02 06:54:21;;;;;;;4.60;2.47;;;16.80;99.90;;;;;;4792539;29;20046;-82
2022/09/02 06:56:51;;;;;;;3.63;2.30;;;16.90;99.90;;;;;;4792613;29;20051;-81
2022/09/02 06:59:19;;;;;;;5.78;2.00;;;17.00;99.90;;;;;;4788414;24;20101;-82
2022/09/02 07:01:51;;;;;;;4.78;1.65;;;17.10;99.90;;;;;;4774894;30;20059;-81
2022/09/02 07:07:11;;;;;;;5.57;2.28;;;17.20;99.90;;;;;;4773711;30;20062;-81
2022/09/02 07:09:48;;;;;;;2.50;1.90;;;17.30;99.90;;;;;;4774450;30;20051;-80
2022/09/02 07:12:15;;;;;;;5.10;2.60;;;17.40;99.90;;;;;;4774643;30;20074;-80
2022/09/02 07:14:42;;;;;;;4.85;2.13;;;17.50;99.90;;;;;;4774367;30;20055;-80
2022/09/02 07:17:22;;;;;;;8.77;1.95;;;17.60;99.90;;;;;;4774302;30;20126;-79
2022/09/02 07:20:04;;;;;;;7.22;2.13;;;17.60;99.90;;;;;;4774111;30;20066;-81
2022/09/02 07:22:33;;;;;;;5.30;2.03;;;17.80;99.90;;;;;;4774662;30;20134;-79
2022/09/02 07:24:59;;;;;;;2.70;2.00;;;17.90;99.90;;;;;;4773533;30;20466;-81
2022/09/02 07:27:50;;;;;;;4.40;2.28;;;18.00;99.90;;;;;;4774709;30;20051;-81
2022/09/02 07:30:16;;;;;;;5.95;2.28;;;18.10;99.90;;;;;;4790460;29;20434;-81
2022/09/02 07:32:59;;;;;;;4.43;2.10;;;18.10;99.90;;;;;;4774458;30;20500;-82
2022/09/02 07:35:52;;;;;;;2.70;1.73;;;18.20;99.90;;;;;;4790584;30;20055;-80
2022/09/02 07:38:18;;;;;;;3.50;2.00;;;18.40;99.90;;;;;;4790751;30;20059;-81
2022/09/02 07:40:45;;;;;;;5.15;1.92;;;18.50;99.90;;;;;;4790323;29;20047;-81
2022/09/02 07:43:23;;;;;;;3.47;1.67;;;18.50;99.90;;;;;;4790552;29;20053;-81
2022/09/02 07:45:49;;;;;;;4.10;2.10;;;18.70;99.90;;;;;;4774053;30;20055;-80
2022/09/02 07:48:15;;;;;;;5.72;2.03;;;18.80;99.90;;;;;;4773990;30;20047;-79
2022/09/02 07:50:41;;;;;;;2.72;1.38;;;18.90;99.90;;;;;;4774148;30;20055;-80
2022/09/02 07:53:14;;;;;;;2.58;1.60;;;19.10;99.90;;;;;;4790168;29;20051;-80
2022/09/02 07:55:48;;;;;;;2.65;1.70;;;19.10;99.90;;;;;;4773611;30;20064;-80
2022/09/02 07:58:17;;;;;;;3.20;1.80;;;19.30;99.90;;;;;;4773286;30;20484;-81
2022/09/02 08:00:43;;;;;;;4.55;1.73;;;19.30;99.90;;;;;;4996874;24;20594;-81
2022/09/02 08:03:15;;;;;;;5.75;1.90;;;19.30;99.90;;;;;;4825858;29;20068;-83
2022/09/02 08:05:43;;;;;;;3.67;1.80;;;19.30;99.90;;;;;;4809539;29;20065;-77
2022/09/02 08:08:09;;;;;;;3.28;1.52;;;19.30;99.90;;;;;;4809115;29;20059;-79
2022/09/02 08:10:36;;;;;;;4.28;2.00;;;19.40;99.90;;;;;;4809104;29;20403;-80
2022/09/02 08:13:05;;;;;;;5.97;2.22;;;19.50;99.90;;;;;;4809304;29;20568;-80
2022/09/02 08:15:32;;;;;;;3.13;1.83;;;19.60;99.90;;;;;;4808315;29;20058;-78
2022/09/02 08:17:58;;;;;;;4.65;2.38;;;19.70;99.90;;;;;;4808683;29;20505;-78
2022/09/02 08:20:24;;;;;;;4.70;2.10;;;19.90;99.90;;;;;;4800568;29;20392;-77
2022/09/02 08:22:50;;;;;;;2.83;1.80;;;19.90;99.90;;;;;;4809274;29;20043;-78
2022/09/02 08:25:17;;;;;;;7.20;1.98;;;20.10;99.90;;;;;;4808175;29;20500;-79
2022/09/02 08:27:44;;;;;;;4.70;1.63;;;20.10;99.90;;;;;;4823504;29;20090;-78
2022/09/02 08:30:10;;;;;;;11.73;2.40;;;20.20;99.90;;;;;;4807430;29;20399;-78
2022/09/02 08:32:38;;;;;;;4.38;1.80;;;20.30;99.90;;;;;;4809165;29;20054;-78
2022/09/02 08:35:05;;;;;;;3.17;1.48;;;20.30;99.90;;;;;;4825198;29;20058;-78
2022/09/02 08:37:32;;;;;;;2.67;1.63;;;20.50;99.90;;;;;;4808636;29;20062;-79
2022/09/02 08:40:00;;;;;;;2.75;1.90;;;20.60;99.90;;;;;;4809255;29;20499;-80
2022/09/02 08:42:53;;;;;;;4.07;1.80;;;20.60;99.90;;;;;;4808728;29;20089;-79
2022/09/02 08:45:31;;;;;;;3.58;1.98;;;20.70;99.90;;;;;;4807189;29;20061;-79
2022/09/02 08:48:19;;;;;;;3.13;1.30;;;20.70;99.90;;;;;;4808850;29;20051;-79
2022/09/02 08:50:46;;;;;;;3.67;1.70;;;20.90;99.90;;;;;;4808742;29;20050;-80
2022/09/02 08:53:40;;;;;;;3.65;1.70;;;20.90;99.90;;;;;;4808495;29;20054;-77
2022/09/02 08:56:10;;;;;;;5.25;1.40;;;20.80;99.90;;;;;;4824713;29;20496;-80
2022/09/02 08:58:40;;;;;;;3.72;1.48;;;21.00;99.90;;;;;;4808437;29;20103;-78
2022/09/02 09:01:29;;;;;;;3.90;1.50;;;21.10;99.90;;;;;;4808282;29;20054;-78
2022/09/02 09:04:11;;;;;;;3.58;1.42;;;21.30;99.90;;;;;;4808815;29;20050;-79
2022/09/02 09:06:45;;;;;;;2.80;1.50;;;21.30;99.90;;;;;;4808573;29;20058;-81
2022/09/02 09:09:33;;;;;;;2.67;1.40;;;21.30;99.90;;;;;;4808557;29;20058;-78
2022/09/02 09:12:27;;;;;;;4.20;1.63;;;21.40;99.90;;;;;;4808498;29;20134;-78
2022/09/02 09:15:07;;;;;;;2.55;1.30;;;21.50;99.90;;;;;;4808462;29;20054;-79
2022/09/02 09:17:43;;;;;;;3.08;1.48;;;21.60;99.90;;;;;;4808181;29;20058;-78
2022/09/02 09:20:21;;;;;;;3.90;1.50;;;21.50;99.90;;;;;;4808206;29;20050;-78
2022/09/02 09:22:49;;;;;;;3.50;1.27;;;21.60;99.90;;;;;;4808085;29;20457;-79
2022/09/02 09:25:16;;;;;;;3.70;1.77;;;21.80;99.90;;;;;;4808032;29;20054;-78
2022/09/02 09:27:46;;;;;;;3.47;1.27;;;21.90;99.90;;;;;;4808287;29;20452;-79
2022/09/02 09:30:12;;;;;;;4.25;1.30;;;21.90;99.90;;;;;;4807999;29;20061;-79
2022/09/02 09:32:53;;;;;;;5.93;1.55;;;21.90;99.90;;;;;;4808216;29;20053;-79
2022/09/02 09:35:20;;;;;;;4.22;1.85;;;22.10;99.90;;;;;;4824742;29;20074;-78
2022/09/02 09:37:54;;;;;;;3.03;1.13;;;22.10;99.90;;;;;;4807779;29;20591;-78
2022/09/02 09:40:19;;;;;;;4.05;1.45;;;22.30;99.90;;;;;;4808230;29;20092;-79
2022/09/02 09:42:47;;;;;;;2.58;1.33;;;22.30;99.90;;;;;;4807854;29;20137;-78
2022/09/02 09:45:37;;;;;;;3.15;1.50;;;22.20;99.90;;;;;;4808158;29;20102;-78
2022/09/02 09:48:15;;;;;;;2.63;1.35;;;22.40;99.90;;;;;;4807657;29;20062;-78
2022/09/02 09:50:47;;;;;;;7.30;2.47;;;22.50;99.90;;;;;;4828202;29;20054;-79
2022/09/02 09:53:33;;;;;;;2.63;1.50;;;22.50;99.90;;;;;;4811835;29;20054;-78
2022/09/02 09:56:00;;;;;;;4.35;1.63;;;22.60;99.90;;;;;;4811498;29;20054;-78
2022/09/02 09:58:44;;;;;;;2.63;1.52;;;22.60;99.90;;;;;;4811330;29;20414;-78
2022/09/02 10:01:16;;;;;;;4.43;1.10;;;22.50;99.70;;;;;;4827625;29;20073;-78
2022/09/02 10:04:05;;;;;;;3.40;1.40;;;22.70;99.90;;;;;;4811742;29;20058;-77
2022/09/02 10:06:31;;;;;;;4.30;1.23;;;22.80;99.60;;;;;;4811401;29;20046;-77
2022/09/02 10:09:05;;;;;;;2.05;1.30;;;22.90;99.90;;;;;;4811165;29;20054;-79
2022/09/02 10:11:36;;;;;;;3.03;1.20;;;23.10;99.30;;;;;;4811396;29;20046;-79
2022/09/02 10:14:08;;;;;;;2.17;1.10;;;23.10;98.50;;;;;;4811468;29;20058;-79
2022/09/02 10:16:41;;;;;;;2.47;1.40;;;23.10;98.90;;;;;;4811101;29;20062;-79
2022/09/02 10:19:18;;;;;;;2.25;1.15;;;23.10;98.90;;;;;;4827539;29;20043;-78
2022/09/02 10:21:56;;;;;;;4.68;1.70;;;23.30;98.70;;;;;;4811333;29;20046;-79
2022/09/02 10:24:57;;;;;;;2.78;1.30;;;23.50;98.70;;;;;;4811135;29;20050;-79
2022/09/02 10:27:29;;;;;;;3.63;1.30;;;23.70;96.80;;;;;;4774152;30;20473;-77
2022/09/02 10:30:04;;;;;;;4.70;1.67;;;23.80;95.80;;;;;;4804765;29;20058;-80
2022/09/02 10:32:39;;;;;;;3.70;1.50;;;23.70;97.60;;;;;;4827059;29;20773;-82
2022/09/02 10:35:11;;;;;;;2.55;1.20;;;23.80;96.10;;;;;;4810842;29;20058;-80
2022/09/02 10:38:02;;;;;;;3.92;0.90;;;23.70;97.10;;;;;;4826992;29;20043;-79
2022/09/02 10:40:40;;;;;;;2.25;1.30;;;23.80;96.80;;;;;;4826213;29;20083;-79
2022/09/02 10:43:40;;;;;;;2.55;1.10;;;23.90;96.40;;;;;;4821034;29;20060;-81
2022/09/02 10:46:09;;;;;;;3.72;1.33;;;23.90;96.90;;;;;;4792874;29;20087;-81
2022/09/02 10:49:12;;;;;;;2.05;1.27;;;24.00;97.20;;;;;;4792399;29;20469;-81
2022/09/02 10:52:26;;;;;;;3.60;0.98;;;24.10;95.60;;;;;;4792810;29;20488;-83
2022/09/02 10:55:03;;;;;;;5.70;0.90;;;24.20;96.00;;;;;;4805025;29;20055;-76
2022/09/02 10:57:34;;;;;;;1.33;0.80;;;24.10;95.20;;;;;;4792446;29;20082;-79
2022/09/02 11:00:17;;;;;;;6.60;1.13;;;24.10;95.50;;;;;;4792115;29;20499;-79
2022/09/02 11:02:49;;;;;;;5.15;1.02;;;24.20;95.90;;;;;;4792394;29;20505;-78
2022/09/02 11:05:20;;;;;;;3.45;1.00;;;24.40;95.40;;;;;;4807268;29;20130;-82
2022/09/02 11:08:09;;;;;;;5.68;1.10;;;24.40;94.20;;;;;;4808561;29;20404;-78
2022/09/02 11:10:39;;;;;;;10.85;1.42;;;24.40;95.00;;;;;;4792527;29;20088;-78
2022/09/02 11:13:08;;;;;;;4.18;1.00;;;24.50;95.00;;;;;;4792232;29;20057;-78
2022/09/02 11:15:39;;;;;;;4.15;1.33;;;24.60;94.00;;;;;;4808302;29;20047;-78
2022/09/02 11:18:38;;;;;;;4.07;1.10;;;24.50;94.70;;;;;;4807177;29;20055;-77
2022/09/02 11:21:13;;;;;;;4.10;1.10;;;24.60;94.40;;;;;;4792087;29;20051;-78
2022/09/02 11:24:03;;;;;;;2.38;1.10;;;24.70;93.90;;;;;;4807192;29;20059;-80
2022/09/02 11:26:40;;;;;;;8.43;1.50;;;24.80;95.20;;;;;;4808255;29;20055;-78
2022/09/02 11:29:34;;;;;;;3.58;1.23;;;24.90;93.60;;;;;;4792257;29;20103;-78
2022/09/02 11:32:30;;;;;;;5.97;1.35;;;24.80;94.40;;;;;;4792054;29;20062;-79
2022/09/02 11:34:58;;;;;;;4.15;1.50;;;25.10;94.70;;;;;;4808017;29;20530;-80
2022/09/02 11:37:45;;;;;;;4.15;1.00;;;25.30;94.00;;;;;;4791896;29;20054;-83
2022/09/02 11:40:25;;;;;;;2.28;1.23;;;25.30;94.20;;;;;;4791957;29;20054;-78
2022/09/02 11:43:07;;;;;;;2.50;1.20;;;25.30;94.80;;;;;;4791434;29;20050;-78
2022/09/02 11:45:43;;;;;;;7.07;1.42;;;25.10;93.30;;;;;;4791471;29;20055;-79
2022/09/02 11:48:19;;;;;;;2.10;1.10;;;25.00;93.40;;;;;;4790487;29;20051;-78
2022/09/02 11:51:11;;;;;;;2.05;1.20;;;25.20;94.80;;;;;;4806610;29;20129;-77
2022/09/02 11:53:40;;;;;;;3.90;1.20;;;24.90;92.80;;;;;;4806724;29;20183;-79
2022/09/02 11:56:15;;;;;;;3.03;1.10;;;25.20;93.70;;;;;;4808049;29;20172;-79
2022/09/02 11:58:46;;;;;;;3.28;1.00;;;25.20;93.50;;;;;;4808092;29;20058;-78
2022/09/02 12:01:57;;;;;;;2.17;1.20;;;25.20;92.90;;;;;;4791403;29;20415;-79
2022/09/02 12:04:25;;;;;;;3.72;1.15;;;25.30;93.20;;;;;;4755207;30;20541;-79
2022/09/02 12:07:14;;;;;;;2.65;1.02;;;25.30;91.90;;;;;;4754853;30;20052;-79
2022/09/02 12:09:55;;;;;;;3.42;0.98;;;25.40;92.60;;;;;;4786817;29;20515;-78
2022/09/02 12:12:37;;;;;;;2.40;0.90;;;25.40;92.10;;;;;;4791071;29;20058;-79
2022/09/02 12:15:06;;;;;;;2.05;1.00;;;25.50;92.50;;;;;;4806651;29;20051;-79
2022/09/02 12:17:52;;;;;;;1.77;0.88;;;25.60;91.40;;;;;;4806313;29;20418;-79
2022/09/02 12:20:37;;;;;;;3.05;0.90;;;25.50;92.50;;;;;;4772960;29;20137;-79
2022/09/02 12:23:04;;;;;;;2.10;1.00;;;25.70;90.90;;;;;;4806279;29;20062;-78
2022/09/02 12:25:32;;;;;;;2.10;1.00;;;25.70;90.80;;;;;;4791380;29;20080;-79
2022/09/02 12:28:20;;;;;;;2.78;1.27;;;25.50;90.60;;;;;;4806121;29;20098;-78
2022/09/02 12:31:10;;;;;;;2.30;0.93;;;25.50;91.00;;;;;;4806341;29;20058;-78
2022/09/02 12:33:35;;;;;;;2.40;1.10;;;25.40;89.80;;;;;;4791425;29;20055;-79
2022/09/02 12:36:03;;;;;;;1.25;0.80;;;25.40;89.10;;;;;;4807436;29;20050;-78
2022/09/02 12:38:30;;;;;;;1.65;0.90;;;25.30;91.10;;;;;;4790868;29;20063;-79
2022/09/02 12:41:05;;;;;;;2.70;0.90;;;25.30;91.10;;;;;;4790822;29;20130;-80
2022/09/02 12:43:46;;;;;;;2.88;0.90;;;25.20;91.50;;;;;;4806127;29;20070;-78
2022/09/02 12:46:22;;;;;;;2.67;1.00;;;25.10;90.80;;;;;;4791053;29;20054;-79
2022/09/02 12:49:00;;;;;;;4.43;1.13;;;25.10;90.90;;;;;;4791027;29;20065;-78
2022/09/02 12:51:56;;;;;;;2.83;0.88;;;25.20;91.30;;;;;;4790912;29;20053;-78
2022/09/02 12:54:37;;;;;;;3.30;1.00;;;25.20;91.30;;;;;;4807069;29;20061;-78
2022/09/02 12:57:05;;;;;;;2.15;0.80;;;25.40;91.30;;;;;;4805723;29;20055;-80
2022/09/02 12:59:33;;;;;;;2.63;0.88;;;25.40;90.40;;;;;;4790340;29;20058;-80
2022/09/02 13:02:29;;;;;;;3.15;1.00;;;25.40;91.00;;;;;;4790658;29;20074;-79
2022/09/02 13:05:13;;;;;;;2.42;1.25;;;25.60;91.20;;;;;;4805705;29;20051;-78
2022/09/02 13:08:04;;;;;;;6.28;1.00;;;25.10;89.00;;;;;;4806747;29;20115;-79
2022/09/02 13:10:54;;;;;;;3.88;1.15;;;25.00;90.20;;;;;;4805675;29;20063;-79
2022/09/02 13:13:38;;;;;;;3.58;1.25;;;25.20;91.30;;;;;;4805411;29;20419;-80
2022/09/02 13:16:09;;;;;;;4.47;1.10;;;25.30;90.90;;;;;;4805662;29;20054;-78
2022/09/02 13:18:54;;;;;;;3.20;1.30;;;25.40;90.40;;;;;;4790338;29;20179;-79
2022/09/02 13:21:47;;;;;;;3.05;1.02;;;25.30;90.30;;;;;;4790388;29;20051;-78
2022/09/02 13:24:36;;;;;;;2.80;1.23;;;25.40;90.60;;;;;;4805951;29;20050;-79
2022/09/02 13:27:22;;;;;;;2.78;1.15;;;25.50;90.80;;;;;;4806665;29;20055;-79
2022/09/02 13:30:10;;;;;;;3.85;0.95;;;25.50;90.80;;;;;;4783591;29;20531;-79